sensor_id;sensor_type;location;lat;lon;timestamp;P1;durP1;ratioP1;P2;durP2;ratioP2
58512;SDS011;44302;47.914;10.642;2022-08-14T00:00:41;3.70;;;3.40;;
58512;SDS011;44302;47.914;10.642;2022-08-14T00:03:20;4.77;;;3.87;;
58512;SDS011;44302;47.914;10.642;2022-08-14T00:05:50;4.30;;;3.90;;
58512;SDS011;44302;47.914;10.642;2022-08-14T00:08:16;5.47;;;4.00;;
58512;SDS011;44302;47.914;10.642;2022-08-14T00:10:43;6.60;;;4.20;;
58512;SDS011;44302;47.914;10.642;2022-08-14T00:13:09;7.37;;;3.83;;
58512;SDS011;44302;47.914;10.642;2022-08-14T00:15:36;3.83;;;3.50;;
58512;SDS011;44302;47.914;10.642;2022-08-14T00:18:05;4.60;;;3.33;;
58512;SDS011;44302;47.914;10.642;2022-08-14T00:20:35;4.13;;;3.53;;
58512;SDS011;44302;47.914;10.642;2022-08-14T00:23:04;4.43;;;3.47;;
58512;SDS011;44302;47.914;10.642;2022-08-14T00:25:31;4.30;;;3.90;;
58512;SDS011;44302;47.914;10.642;2022-08-14T00:27:57;5.87;;;3.90;;
58512;SDS011;44302;47.914;10.642;2022-08-14T00:30:23;4.27;;;3.70;;
58512;SDS011;44302;47.914;10.642;2022-08-14T00:32:49;4.00;;;3.60;;
58512;SDS011;44302;47.914;10.642;2022-08-14T00:35:15;4.47;;;3.93;;
58512;SDS011;44302;47.914;10.642;2022-08-14T00:37:43;4.20;;;3.63;;
58512;SDS011;44302;47.914;10.642;2022-08-14T00:40:11;4.00;;;3.60;;
58512;SDS011;44302;47.914;10.642;2022-08-14T00:42:42;4.23;;;3.83;;
58512;SDS011;44302;47.914;10.642;2022-08-14T00:45:09;4.50;;;3.30;;
58512;SDS011;44302;47.914;10.642;2022-08-14T00:47:36;4.63;;;3.90;;
58512;SDS011;44302;47.914;10.642;2022-08-14T00:50:03;4.60;;;3.70;;
58512;SDS011;44302;47.914;10.642;2022-08-14T00:52:31;5.80;;;3.97;;
58512;SDS011;44302;47.914;10.642;2022-08-14T00:54:57;5.17;;;3.37;;
58512;SDS011;44302;47.914;10.642;2022-08-14T00:57:28;7.33;;;3.70;;
58512;SDS011;44302;47.914;10.642;2022-08-14T00:59:55;5.33;;;3.70;;
58512;SDS011;44302;47.914;10.642;2022-08-14T01:02:21;6.80;;;3.53;;
58512;SDS011;44302;47.914;10.642;2022-08-14T01:04:50;3.73;;;3.43;;
58512;SDS011;44302;47.914;10.642;2022-08-14T01:07:18;4.57;;;3.30;;
58512;SDS011;44302;47.914;10.642;2022-08-14T01:09:56;3.70;;;3.40;;
58512;SDS011;44302;47.914;10.642;2022-08-14T01:12:26;7.50;;;3.77;;
58512;SDS011;44302;47.914;10.642;2022-08-14T01:14:52;3.70;;;3.40;;
58512;SDS011;44302;47.914;10.642;2022-08-14T01:17:19;4.87;;;3.53;;
58512;SDS011;44302;47.914;10.642;2022-08-14T01:19:46;4.77;;;4.07;;
58512;SDS011;44302;47.914;10.642;2022-08-14T01:22:31;4.43;;;3.70;;
58512;SDS011;44302;47.914;10.642;2022-08-14T01:24:57;4.57;;;3.70;;
58512;SDS011;44302;47.914;10.642;2022-08-14T01:27:23;4.37;;;3.23;;
58512;SDS011;44302;47.914;10.642;2022-08-14T01:29:52;5.07;;;3.50;;
58512;SDS011;44302;47.914;10.642;2022-08-14T01:32:19;6.30;;;4.47;;
58512;SDS011;44302;47.914;10.642;2022-08-14T01:34:49;7.27;;;4.13;;
58512;SDS011;44302;47.914;10.642;2022-08-14T01:37:19;4.30;;;3.90;;
58512;SDS011;44302;47.914;10.642;2022-08-14T01:39:52;7.80;;;3.80;;
58512;SDS011;44302;47.914;10.642;2022-08-14T01:42:18;4.33;;;3.93;;
58512;SDS011;44302;47.914;10.642;2022-08-14T01:44:45;4.50;;;3.90;;
58512;SDS011;44302;47.914;10.642;2022-08-14T01:47:16;5.23;;;3.80;;
58512;SDS011;44302;47.914;10.642;2022-08-14T01:49:43;5.07;;;4.20;;
58512;SDS011;44302;47.914;10.642;2022-08-14T01:52:09;6.33;;;3.63;;
58512;SDS011;44302;47.914;10.642;2022-08-14T01:54:37;5.63;;;3.80;;
58512;SDS011;44302;47.914;10.642;2022-08-14T01:57:03;4.47;;;3.93;;
58512;SDS011;44302;47.914;10.642;2022-08-14T01:59:29;4.07;;;3.67;;
58512;SDS011;44302;47.914;10.642;2022-08-14T02:01:58;5.57;;;3.50;;
58512;SDS011;44302;47.914;10.642;2022-08-14T02:04:28;5.83;;;3.80;;
58512;SDS011;44302;47.914;10.642;2022-08-14T02:06:58;4.33;;;3.77;;
58512;SDS011;44302;47.914;10.642;2022-08-14T02:09:26;4.40;;;3.80;;
58512;SDS011;44302;47.914;10.642;2022-08-14T02:11:54;4.20;;;3.73;;
58512;SDS011;44302;47.914;10.642;2022-08-14T02:14:20;4.43;;;4.03;;
58512;SDS011;44302;47.914;10.642;2022-08-14T02:16:48;7.90;;;3.93;;
58512;SDS011;44302;47.914;10.642;2022-08-14T02:19:24;4.60;;;4.20;;
58512;SDS011;44302;47.914;10.642;2022-08-14T02:21:53;5.07;;;4.03;;
58512;SDS011;44302;47.914;10.642;2022-08-14T02:24:21;6.70;;;4.03;;
58512;SDS011;44302;47.914;10.642;2022-08-14T02:26:48;4.40;;;4.00;;
58512;SDS011;44302;47.914;10.642;2022-08-14T02:29:19;4.10;;;3.70;;
58512;SDS011;44302;47.914;10.642;2022-08-14T02:31:48;4.53;;;4.13;;
58512;SDS011;44302;47.914;10.642;2022-08-14T02:34:16;4.80;;;4.30;;
58512;SDS011;44302;47.914;10.642;2022-08-14T02:36:43;5.20;;;3.63;;
58512;SDS011;44302;47.914;10.642;2022-08-14T02:39:09;4.03;;;3.63;;
58512;SDS011;44302;47.914;10.642;2022-08-14T02:41:37;4.40;;;4.00;;
58512;SDS011;44302;47.914;10.642;2022-08-14T02:44:03;5.00;;;4.43;;
58512;SDS011;44302;47.914;10.642;2022-08-14T02:46:31;4.27;;;3.87;;
58512;SDS011;44302;47.914;10.642;2022-08-14T02:48:57;4.40;;;4.00;;
58512;SDS011;44302;47.914;10.642;2022-08-14T02:51:23;4.67;;;3.50;;
58512;SDS011;44302;47.914;10.642;2022-08-14T02:53:50;4.63;;;4.10;;
58512;SDS011;44302;47.914;10.642;2022-08-14T02:56:18;5.43;;;4.13;;
58512;SDS011;44302;47.914;10.642;2022-08-14T02:58:45;6.60;;;4.27;;
58512;SDS011;44302;47.914;10.642;2022-08-14T03:01:14;5.53;;;4.53;;
58512;SDS011;44302;47.914;10.642;2022-08-14T03:03:42;4.90;;;4.40;;
58512;SDS011;44302;47.914;10.642;2022-08-14T03:06:09;4.90;;;4.40;;
58512;SDS011;44302;47.914;10.642;2022-08-14T03:08:37;5.23;;;4.07;;
58512;SDS011;44302;47.914;10.642;2022-08-14T03:11:06;7.13;;;4.13;;
58512;SDS011;44302;47.914;10.642;2022-08-14T03:13:34;5.17;;;4.50;;
58512;SDS011;44302;47.914;10.642;2022-08-14T03:16:01;4.40;;;4.00;;
58512;SDS011;44302;47.914;10.642;2022-08-14T03:18:32;5.83;;;4.33;;
58512;SDS011;44302;47.914;10.642;2022-08-14T03:20:59;8.77;;;4.27;;
58512;SDS011;44302;47.914;10.642;2022-08-14T03:23:26;4.37;;;3.97;;
58512;SDS011;44302;47.914;10.642;2022-08-14T03:25:58;5.93;;;4.50;;
58512;SDS011;44302;47.914;10.642;2022-08-14T03:28:25;4.67;;;4.13;;
58512;SDS011;44302;47.914;10.642;2022-08-14T03:30:53;6.10;;;4.20;;
58512;SDS011;44302;47.914;10.642;2022-08-14T03:33:20;5.80;;;5.20;;
58512;SDS011;44302;47.914;10.642;2022-08-14T03:35:46;4.80;;;4.20;;
58512;SDS011;44302;47.914;10.642;2022-08-14T03:38:13;5.13;;;4.63;;
58512;SDS011;44302;47.914;10.642;2022-08-14T03:40:42;5.20;;;4.70;;
58512;SDS011;44302;47.914;10.642;2022-08-14T03:43:10;5.00;;;4.50;;
58512;SDS011;44302;47.914;10.642;2022-08-14T03:45:36;7.23;;;4.63;;
58512;SDS011;44302;47.914;10.642;2022-08-14T03:48:08;5.00;;;4.50;;
58512;SDS011;44302;47.914;10.642;2022-08-14T03:50:39;6.73;;;5.20;;
58512;SDS011;44302;47.914;10.642;2022-08-14T03:53:05;5.60;;;5.00;;
58512;SDS011;44302;47.914;10.642;2022-08-14T03:55:31;5.30;;;4.80;;
58512;SDS011;44302;47.914;10.642;2022-08-14T03:57:57;6.70;;;5.63;;
58512;SDS011;44302;47.914;10.642;2022-08-14T04:00:23;7.03;;;4.97;;
58512;SDS011;44302;47.914;10.642;2022-08-14T04:02:49;5.57;;;4.63;;
58512;SDS011;44302;47.914;10.642;2022-08-14T04:05:16;7.53;;;4.53;;
58512;SDS011;44302;47.914;10.642;2022-08-14T04:07:42;5.03;;;4.20;;
58512;SDS011;44302;47.914;10.642;2022-08-14T04:10:08;4.90;;;4.40;;
58512;SDS011;44302;47.914;10.642;2022-08-14T04:12:34;4.70;;;4.30;;
58512;SDS011;44302;47.914;10.642;2022-08-14T04:15:01;5.00;;;4.50;;
58512;SDS011;44302;47.914;10.642;2022-08-14T04:17:27;4.53;;;4.13;;
58512;SDS011;44302;47.914;10.642;2022-08-14T04:19:53;4.90;;;4.10;;
58512;SDS011;44302;47.914;10.642;2022-08-14T04:22:20;4.40;;;3.87;;
58512;SDS011;44302;47.914;10.642;2022-08-14T04:24:46;6.50;;;4.80;;
58512;SDS011;44302;47.914;10.642;2022-08-14T04:27:13;4.60;;;4.20;;
58512;SDS011;44302;47.914;10.642;2022-08-14T04:29:40;4.23;;;3.53;;
58512;SDS011;44302;47.914;10.642;2022-08-14T04:32:07;4.27;;;3.87;;
58512;SDS011;44302;47.914;10.642;2022-08-14T04:34:36;4.37;;;3.83;;
58512;SDS011;44302;47.914;10.642;2022-08-14T04:37:06;4.87;;;4.17;;
58512;SDS011;44302;47.914;10.642;2022-08-14T04:39:52;4.60;;;3.90;;
58512;SDS011;44302;47.914;10.642;2022-08-14T04:42:37;4.97;;;3.97;;
58512;SDS011;44302;47.914;10.642;2022-08-14T04:45:22;5.50;;;4.07;;
58512;SDS011;44302;47.914;10.642;2022-08-14T04:47:49;4.10;;;3.70;;
58512;SDS011;44302;47.914;10.642;2022-08-14T04:50:34;4.60;;;3.77;;
58512;SDS011;44302;47.914;10.642;2022-08-14T04:53:03;4.40;;;3.80;;
58512;SDS011;44302;47.914;10.642;2022-08-14T04:55:28;4.73;;;3.70;;
58512;SDS011;44302;47.914;10.642;2022-08-14T04:57:54;4.47;;;3.80;;
58512;SDS011;44302;47.914;10.642;2022-08-14T05:00:21;3.97;;;3.67;;
58512;SDS011;44302;47.914;10.642;2022-08-14T05:02:47;4.23;;;3.83;;
58512;SDS011;44302;47.914;10.642;2022-08-14T05:05:13;4.17;;;3.77;;
58512;SDS011;44302;47.914;10.642;2022-08-14T05:07:40;3.60;;;3.30;;
58512;SDS011;44302;47.914;10.642;2022-08-14T05:10:06;7.30;;;3.60;;
58512;SDS011;44302;47.914;10.642;2022-08-14T05:12:32;3.93;;;3.43;;
58512;SDS011;44302;47.914;10.642;2022-08-14T05:14:59;3.83;;;3.47;;
58512;SDS011;44302;47.914;10.642;2022-08-14T05:17:26;4.97;;;3.50;;
58512;SDS011;44302;47.914;10.642;2022-08-14T05:19:52;4.87;;;3.27;;
58512;SDS011;44302;47.914;10.642;2022-08-14T05:22:18;5.90;;;3.90;;
58512;SDS011;44302;47.914;10.642;2022-08-14T05:24:46;4.00;;;3.70;;
58512;SDS011;44302;47.914;10.642;2022-08-14T05:27:13;3.80;;;3.00;;
58512;SDS011;44302;47.914;10.642;2022-08-14T05:29:39;4.40;;;3.37;;
58512;SDS011;44302;47.914;10.642;2022-08-14T05:32:09;3.97;;;3.47;;
58512;SDS011;44302;47.914;10.642;2022-08-14T05:34:35;7.57;;;3.00;;
58512;SDS011;44302;47.914;10.642;2022-08-14T05:37:01;3.23;;;2.93;;
58512;SDS011;44302;47.914;10.642;2022-08-14T05:39:27;3.67;;;3.10;;
58512;SDS011;44302;47.914;10.642;2022-08-14T05:41:54;4.23;;;3.10;;
58512;SDS011;44302;47.914;10.642;2022-08-14T05:44:20;5.97;;;3.20;;
58512;SDS011;44302;47.914;10.642;2022-08-14T05:46:46;6.43;;;3.30;;
58512;SDS011;44302;47.914;10.642;2022-08-14T05:49:12;3.30;;;2.90;;
58512;SDS011;44302;47.914;10.642;2022-08-14T05:51:39;4.90;;;2.80;;
58512;SDS011;44302;47.914;10.642;2022-08-14T05:54:05;3.50;;;2.93;;
58512;SDS011;44302;47.914;10.642;2022-08-14T05:56:31;4.57;;;2.90;;
58512;SDS011;44302;47.914;10.642;2022-08-14T05:58:57;11.63;;;3.67;;
58512;SDS011;44302;47.914;10.642;2022-08-14T06:01:23;4.03;;;2.70;;
58512;SDS011;44302;47.914;10.642;2022-08-14T06:03:49;3.33;;;2.90;;
58512;SDS011;44302;47.914;10.642;2022-08-14T06:06:16;2.50;;;2.30;;
58512;SDS011;44302;47.914;10.642;2022-08-14T06:08:43;3.00;;;2.70;;
58512;SDS011;44302;47.914;10.642;2022-08-14T06:11:09;4.67;;;2.50;;
58512;SDS011;44302;47.914;10.642;2022-08-14T06:13:36;2.63;;;2.20;;
58512;SDS011;44302;47.914;10.642;2022-08-14T06:16:03;5.13;;;2.40;;
58512;SDS011;44302;47.914;10.642;2022-08-14T06:18:30;3.77;;;2.40;;
58512;SDS011;44302;47.914;10.642;2022-08-14T06:20:56;4.73;;;2.93;;
58512;SDS011;44302;47.914;10.642;2022-08-14T06:23:22;2.90;;;2.60;;
58512;SDS011;44302;47.914;10.642;2022-08-14T06:25:47;3.37;;;2.57;;
58512;SDS011;44302;47.914;10.642;2022-08-14T06:30:43;3.03;;;2.73;;
58512;SDS011;44302;47.914;10.642;2022-08-14T06:33:09;2.73;;;2.53;;
58512;SDS011;44302;47.914;10.642;2022-08-14T06:35:35;6.87;;;2.70;;
58512;SDS011;44302;47.914;10.642;2022-08-14T06:38:01;3.97;;;2.53;;
58512;SDS011;44302;47.914;10.642;2022-08-14T06:40:29;3.10;;;2.50;;
58512;SDS011;44302;47.914;10.642;2022-08-14T06:43:01;3.33;;;2.40;;
58512;SDS011;44302;47.914;10.642;2022-08-14T06:45:29;2.50;;;2.30;;
58512;SDS011;44302;47.914;10.642;2022-08-14T06:47:55;2.57;;;2.37;;
58512;SDS011;44302;47.914;10.642;2022-08-14T06:50:22;2.50;;;2.30;;
58512;SDS011;44302;47.914;10.642;2022-08-14T06:52:48;3.17;;;2.60;;
58512;SDS011;44302;47.914;10.642;2022-08-14T06:55:14;3.20;;;2.30;;
58512;SDS011;44302;47.914;10.642;2022-08-14T06:57:46;5.10;;;2.50;;
58512;SDS011;44302;47.914;10.642;2022-08-14T07:00:14;2.77;;;2.30;;
58512;SDS011;44302;47.914;10.642;2022-08-14T07:02:52;2.60;;;2.30;;
58512;SDS011;44302;47.914;10.642;2022-08-14T07:05:37;2.47;;;2.27;;
58512;SDS011;44302;47.914;10.642;2022-08-14T07:08:22;2.53;;;2.33;;
58512;SDS011;44302;47.914;10.642;2022-08-14T07:10:51;2.80;;;2.60;;
58512;SDS011;44302;47.914;10.642;2022-08-14T07:13:19;3.97;;;2.33;;
58512;SDS011;44302;47.914;10.642;2022-08-14T07:15:47;2.63;;;2.43;;
58512;SDS011;44302;47.914;10.642;2022-08-14T07:18:35;3.63;;;2.97;;
58512;SDS011;44302;47.914;10.642;2022-08-14T07:21:01;3.33;;;2.30;;
58512;SDS011;44302;47.914;10.642;2022-08-14T07:23:29;3.33;;;2.47;;
58512;SDS011;44302;47.914;10.642;2022-08-14T07:25:55;2.50;;;2.20;;
58512;SDS011;44302;47.914;10.642;2022-08-14T07:28:26;5.00;;;2.60;;
58512;SDS011;44302;47.914;10.642;2022-08-14T07:30:56;2.73;;;2.53;;
58512;SDS011;44302;47.914;10.642;2022-08-14T07:33:23;2.47;;;2.27;;
58512;SDS011;44302;47.914;10.642;2022-08-14T07:35:50;2.20;;;2.00;;
58512;SDS011;44302;47.914;10.642;2022-08-14T07:38:17;2.60;;;2.40;;
58512;SDS011;44302;47.914;10.642;2022-08-14T07:40:45;2.57;;;2.37;;
58512;SDS011;44302;47.914;10.642;2022-08-14T07:43:11;3.07;;;2.50;;
58512;SDS011;44302;47.914;10.642;2022-08-14T07:45:37;3.07;;;2.50;;
58512;SDS011;44302;47.914;10.642;2022-08-14T07:48:04;3.40;;;2.20;;
58512;SDS011;44302;47.914;10.642;2022-08-14T07:50:30;6.23;;;2.90;;
58512;SDS011;44302;47.914;10.642;2022-08-14T07:52:57;3.97;;;2.23;;
58512;SDS011;44302;47.914;10.642;2022-08-14T07:55:24;2.80;;;2.37;;
58512;SDS011;44302;47.914;10.642;2022-08-14T07:57:50;3.27;;;2.70;;
58512;SDS011;44302;47.914;10.642;2022-08-14T08:00:20;5.23;;;2.50;;
58512;SDS011;44302;47.914;10.642;2022-08-14T08:02:49;4.93;;;2.50;;
58512;SDS011;44302;47.914;10.642;2022-08-14T08:05:17;2.63;;;2.43;;
58512;SDS011;44302;47.914;10.642;2022-08-14T08:07:44;2.40;;;2.13;;
58512;SDS011;44302;47.914;10.642;2022-08-14T08:10:12;2.60;;;2.10;;
58512;SDS011;44302;47.914;10.642;2022-08-14T08:12:58;2.60;;;2.40;;
58512;SDS011;44302;47.914;10.642;2022-08-14T08:15:53;2.50;;;2.10;;
58512;SDS011;44302;47.914;10.642;2022-08-14T08:18:23;3.77;;;2.20;;
58512;SDS011;44302;47.914;10.642;2022-08-14T08:20:51;2.70;;;2.03;;
58512;SDS011;44302;47.914;10.642;2022-08-14T08:23:19;2.50;;;2.30;;
58512;SDS011;44302;47.914;10.642;2022-08-14T08:25:47;6.60;;;2.10;;
58512;SDS011;44302;47.914;10.642;2022-08-14T08:28:16;1.90;;;1.80;;
58512;SDS011;44302;47.914;10.642;2022-08-14T08:30:47;3.13;;;2.10;;
58512;SDS011;44302;47.914;10.642;2022-08-14T08:33:15;2.60;;;2.40;;
58512;SDS011;44302;47.914;10.642;2022-08-14T08:35:42;2.03;;;1.87;;
58512;SDS011;44302;47.914;10.642;2022-08-14T08:38:09;2.20;;;2.00;;
58512;SDS011;44302;47.914;10.642;2022-08-14T08:40:38;3.57;;;1.80;;
58512;SDS011;44302;47.914;10.642;2022-08-14T08:43:17;2.03;;;1.83;;
58512;SDS011;44302;47.914;10.642;2022-08-14T08:48:28;1.90;;;1.70;;
58512;SDS011;44302;47.914;10.642;2022-08-14T08:51:00;1.70;;;1.60;;
58512;SDS011;44302;47.914;10.642;2022-08-14T08:53:33;1.73;;;1.63;;
58512;SDS011;44302;47.914;10.642;2022-08-14T08:56:00;3.80;;;1.57;;
58512;SDS011;44302;47.914;10.642;2022-08-14T08:58:27;1.90;;;1.73;;
58512;SDS011;44302;47.914;10.642;2022-08-14T09:00:54;2.37;;;2.00;;
58512;SDS011;44302;47.914;10.642;2022-08-14T09:03:22;1.60;;;1.50;;
58512;SDS011;44302;47.914;10.642;2022-08-14T09:08:19;1.77;;;1.40;;
58512;SDS011;44302;47.914;10.642;2022-08-14T09:10:45;2.03;;;1.30;;
58512;SDS011;44302;47.914;10.642;2022-08-14T09:13:12;2.90;;;1.70;;
58512;SDS011;44302;47.914;10.642;2022-08-14T09:15:40;1.67;;;1.57;;
58512;SDS011;44302;47.914;10.642;2022-08-14T09:18:07;2.00;;;1.33;;
58512;SDS011;44302;47.914;10.642;2022-08-14T09:20:34;2.97;;;1.57;;
58512;SDS011;44302;47.914;10.642;2022-08-14T09:23:02;2.13;;;1.40;;
58512;SDS011;44302;47.914;10.642;2022-08-14T09:25:29;1.63;;;1.53;;
58512;SDS011;44302;47.914;10.642;2022-08-14T09:27:54;1.60;;;1.50;;
58512;SDS011;44302;47.914;10.642;2022-08-14T09:30:20;4.23;;;1.50;;
58512;SDS011;44302;47.914;10.642;2022-08-14T09:46:52;3.03;;;1.27;;
58512;SDS011;44302;47.914;10.642;2022-08-14T09:49:28;2.47;;;1.30;;
58512;SDS011;44302;47.914;10.642;2022-08-14T09:52:06;2.20;;;1.40;;
58512;SDS011;44302;47.914;10.642;2022-08-14T09:54:39;1.83;;;1.03;;
58512;SDS011;44302;47.914;10.642;2022-08-14T09:57:10;2.47;;;1.30;;
58512;SDS011;44302;47.914;10.642;2022-08-14T09:59:51;3.00;;;1.40;;
58512;SDS011;44302;47.914;10.642;2022-08-14T10:02:24;2.30;;;1.20;;
58512;SDS011;44302;47.914;10.642;2022-08-14T10:04:59;1.50;;;1.30;;
58512;SDS011;44302;47.914;10.642;2022-08-14T10:07:34;1.40;;;1.30;;
58512;SDS011;44302;47.914;10.642;2022-08-14T10:10:02;1.37;;;1.27;;
58512;SDS011;44302;47.914;10.642;2022-08-14T10:12:45;1.83;;;1.30;;
58512;SDS011;44302;47.914;10.642;2022-08-14T10:15:16;1.67;;;1.30;;
58512;SDS011;44302;47.914;10.642;2022-08-14T10:17:47;1.63;;;1.53;;
58512;SDS011;44302;47.914;10.642;2022-08-14T10:20:16;1.80;;;1.70;;
58512;SDS011;44302;47.914;10.642;2022-08-14T10:22:46;2.20;;;1.73;;
58512;SDS011;44302;47.914;10.642;2022-08-14T10:25:14;1.80;;;1.70;;
58512;SDS011;44302;47.914;10.642;2022-08-14T10:27:42;2.07;;;1.50;;
58512;SDS011;44302;47.914;10.642;2022-08-14T10:30:14;1.60;;;1.40;;
58512;SDS011;44302;47.914;10.642;2022-08-14T10:32:42;3.17;;;1.40;;
58512;SDS011;44302;47.914;10.642;2022-08-14T10:35:09;4.67;;;1.77;;
58512;SDS011;44302;47.914;10.642;2022-08-14T10:37:37;2.33;;;1.60;;
58512;SDS011;44302;47.914;10.642;2022-08-14T10:40:05;2.43;;;1.90;;
58512;SDS011;44302;47.914;10.642;2022-08-14T10:42:39;1.97;;;1.60;;
58512;SDS011;44302;47.914;10.642;2022-08-14T10:45:19;3.60;;;2.17;;
58512;SDS011;44302;47.914;10.642;2022-08-14T10:47:55;2.40;;;1.40;;
58512;SDS011;44302;47.914;10.642;2022-08-14T10:50:34;1.63;;;1.53;;
58512;SDS011;44302;47.914;10.642;2022-08-14T10:53:02;1.70;;;1.60;;
58512;SDS011;44302;47.914;10.642;2022-08-14T10:55:33;1.70;;;1.57;;
58512;SDS011;44302;47.914;10.642;2022-08-14T10:58:04;1.60;;;1.50;;
58512;SDS011;44302;47.914;10.642;2022-08-14T11:00:35;1.53;;;1.43;;
58512;SDS011;44302;47.914;10.642;2022-08-14T11:03:09;1.13;;;1.00;;
58512;SDS011;44302;47.914;10.642;2022-08-14T11:08:08;2.43;;;1.50;;
58512;SDS011;44302;47.914;10.642;2022-08-14T11:10:54;1.50;;;1.20;;
58512;SDS011;44302;47.914;10.642;2022-08-14T11:13:25;1.60;;;1.50;;
58512;SDS011;44302;47.914;10.642;2022-08-14T11:15:52;1.20;;;1.10;;
58512;SDS011;44302;47.914;10.642;2022-08-14T11:18:24;1.90;;;1.30;;
58512;SDS011;44302;47.914;10.642;2022-08-14T11:20:53;1.70;;;1.50;;
58512;SDS011;44302;47.914;10.642;2022-08-14T11:23:20;2.03;;;1.53;;
58512;SDS011;44302;47.914;10.642;2022-08-14T11:25:51;1.63;;;1.47;;
58512;SDS011;44302;47.914;10.642;2022-08-14T11:28:18;1.43;;;1.33;;
58512;SDS011;44302;47.914;10.642;2022-08-14T11:30:48;1.73;;;1.50;;
58512;SDS011;44302;47.914;10.642;2022-08-14T11:33:14;1.60;;;1.50;;
58512;SDS011;44302;47.914;10.642;2022-08-14T11:35:41;2.43;;;1.50;;
58512;SDS011;44302;47.914;10.642;2022-08-14T11:38:11;1.80;;;1.30;;
58512;SDS011;44302;47.914;10.642;2022-08-14T11:40:37;1.40;;;1.30;;
58512;SDS011;44302;47.914;10.642;2022-08-14T11:43:04;2.40;;;1.37;;
58512;SDS011;44302;47.914;10.642;2022-08-14T11:45:33;1.30;;;1.20;;
58512;SDS011;44302;47.914;10.642;2022-08-14T11:48:16;1.30;;;1.20;;
58512;SDS011;44302;47.914;10.642;2022-08-14T11:50:42;2.43;;;1.70;;
58512;SDS011;44302;47.914;10.642;2022-08-14T11:56:01;2.30;;;1.37;;
58512;SDS011;44302;47.914;10.642;2022-08-14T11:58:31;3.07;;;1.57;;
58512;SDS011;44302;47.914;10.642;2022-08-14T12:00:59;1.70;;;1.57;;
58512;SDS011;44302;47.914;10.642;2022-08-14T12:06:04;2.53;;;1.20;;
58512;SDS011;44302;47.914;10.642;2022-08-14T12:08:32;1.90;;;1.60;;
58512;SDS011;44302;47.914;10.642;2022-08-14T12:10:59;1.77;;;1.50;;
58512;SDS011;44302;47.914;10.642;2022-08-14T12:13:25;1.30;;;1.20;;
58512;SDS011;44302;47.914;10.642;2022-08-14T12:15:57;1.70;;;1.40;;
58512;SDS011;44302;47.914;10.642;2022-08-14T12:18:44;1.70;;;1.60;;
58512;SDS011;44302;47.914;10.642;2022-08-14T12:21:17;1.60;;;1.50;;
58512;SDS011;44302;47.914;10.642;2022-08-14T12:23:45;1.60;;;1.50;;
58512;SDS011;44302;47.914;10.642;2022-08-14T12:26:25;1.80;;;1.50;;
58512;SDS011;44302;47.914;10.642;2022-08-14T12:29:02;1.97;;;1.77;;
58512;SDS011;44302;47.914;10.642;2022-08-14T12:31:34;1.70;;;1.60;;
58512;SDS011;44302;47.914;10.642;2022-08-14T12:34:02;1.43;;;1.33;;
58512;SDS011;44302;47.914;10.642;2022-08-14T12:36:29;1.53;;;1.40;;
58512;SDS011;44302;47.914;10.642;2022-08-14T12:38:58;4.77;;;1.80;;
58512;SDS011;44302;47.914;10.642;2022-08-14T12:41:26;2.07;;;1.87;;
58512;SDS011;44302;47.914;10.642;2022-08-14T12:44:00;2.47;;;1.43;;
58512;SDS011;44302;47.914;10.642;2022-08-14T12:46:34;3.73;;;1.60;;
58512;SDS011;44302;47.914;10.642;2022-08-14T12:49:08;2.93;;;1.70;;
58512;SDS011;44302;47.914;10.642;2022-08-14T12:51:35;1.77;;;1.57;;
58512;SDS011;44302;47.914;10.642;2022-08-14T12:54:11;1.60;;;1.50;;
58512;SDS011;44302;47.914;10.642;2022-08-14T12:56:38;1.73;;;1.53;;
58512;SDS011;44302;47.914;10.642;2022-08-14T12:59:04;2.93;;;1.80;;
58512;SDS011;44302;47.914;10.642;2022-08-14T13:01:31;1.47;;;1.30;;
58512;SDS011;44302;47.914;10.642;2022-08-14T13:04:05;1.37;;;1.27;;
58512;SDS011;44302;47.914;10.642;2022-08-14T13:06:41;8.33;;;3.07;;
58512;SDS011;44302;47.914;10.642;2022-08-14T13:09:09;1.67;;;1.57;;
58512;SDS011;44302;47.914;10.642;2022-08-14T13:11:40;1.93;;;1.20;;
58512;SDS011;44302;47.914;10.642;2022-08-14T13:14:09;1.50;;;1.40;;
58512;SDS011;44302;47.914;10.642;2022-08-14T13:16:38;2.17;;;1.50;;
58512;SDS011;44302;47.914;10.642;2022-08-14T13:19:10;1.70;;;1.60;;
58512;SDS011;44302;47.914;10.642;2022-08-14T13:21:40;2.50;;;1.70;;
58512;SDS011;44302;47.914;10.642;2022-08-14T13:24:07;1.63;;;1.53;;
58512;SDS011;44302;47.914;10.642;2022-08-14T13:26:43;1.83;;;1.50;;
58512;SDS011;44302;47.914;10.642;2022-08-14T13:29:18;1.50;;;1.40;;
58512;SDS011;44302;47.914;10.642;2022-08-14T13:31:46;2.43;;;1.30;;
58512;SDS011;44302;47.914;10.642;2022-08-14T13:34:16;2.70;;;1.60;;
58512;SDS011;44302;47.914;10.642;2022-08-14T13:36:44;1.20;;;1.17;;
58512;SDS011;44302;47.914;10.642;2022-08-14T13:39:13;2.13;;;1.73;;
58512;SDS011;44302;47.914;10.642;2022-08-14T13:41:41;3.50;;;1.80;;
58512;SDS011;44302;47.914;10.642;2022-08-14T13:44:08;1.60;;;1.30;;
58512;SDS011;44302;47.914;10.642;2022-08-14T13:46:35;3.37;;;1.50;;
58512;SDS011;44302;47.914;10.642;2022-08-14T13:49:01;3.03;;;1.43;;
58512;SDS011;44302;47.914;10.642;2022-08-14T13:51:28;1.83;;;1.40;;
58512;SDS011;44302;47.914;10.642;2022-08-14T13:53:57;1.50;;;1.40;;
58512;SDS011;44302;47.914;10.642;2022-08-14T13:56:26;1.53;;;1.40;;
58512;SDS011;44302;47.914;10.642;2022-08-14T13:58:52;1.43;;;1.33;;
58512;SDS011;44302;47.914;10.642;2022-08-14T14:01:22;3.10;;;1.60;;
58512;SDS011;44302;47.914;10.642;2022-08-14T14:03:51;1.70;;;1.50;;
58512;SDS011;44302;47.914;10.642;2022-08-14T14:06:19;1.83;;;1.50;;
58512;SDS011;44302;47.914;10.642;2022-08-14T14:08:48;1.87;;;1.60;;
58512;SDS011;44302;47.914;10.642;2022-08-14T14:11:18;4.50;;;1.87;;
58512;SDS011;44302;47.914;10.642;2022-08-14T14:13:48;2.30;;;1.50;;
58512;SDS011;44302;47.914;10.642;2022-08-14T14:16:18;4.13;;;1.70;;
58512;SDS011;44302;47.914;10.642;2022-08-14T14:18:45;1.50;;;1.40;;
58512;SDS011;44302;47.914;10.642;2022-08-14T14:21:16;4.50;;;1.90;;
58512;SDS011;44302;47.914;10.642;2022-08-14T14:23:43;2.40;;;1.60;;
58512;SDS011;44302;47.914;10.642;2022-08-14T14:26:13;4.77;;;1.77;;
58512;SDS011;44302;47.914;10.642;2022-08-14T14:28:40;1.90;;;1.60;;
58512;SDS011;44302;47.914;10.642;2022-08-14T14:31:07;1.90;;;1.50;;
58512;SDS011;44302;47.914;10.642;2022-08-14T14:33:36;1.60;;;1.50;;
58512;SDS011;44302;47.914;10.642;2022-08-14T14:36:06;2.40;;;1.67;;
58512;SDS011;44302;47.914;10.642;2022-08-14T14:38:35;2.67;;;1.70;;
58512;SDS011;44302;47.914;10.642;2022-08-14T14:41:06;2.43;;;2.10;;
58512;SDS011;44302;47.914;10.642;2022-08-14T14:43:33;1.43;;;1.33;;
58512;SDS011;44302;47.914;10.642;2022-08-14T14:46:02;6.63;;;1.50;;
58512;SDS011;44302;47.914;10.642;2022-08-14T14:48:28;1.90;;;1.80;;
58512;SDS011;44302;47.914;10.642;2022-08-14T14:50:56;1.40;;;1.30;;
58512;SDS011;44302;47.914;10.642;2022-08-14T14:53:25;1.60;;;1.40;;
58512;SDS011;44302;47.914;10.642;2022-08-14T14:55:57;1.67;;;1.57;;
58512;SDS011;44302;47.914;10.642;2022-08-14T14:58:26;1.70;;;1.60;;
58512;SDS011;44302;47.914;10.642;2022-08-14T15:00:54;6.47;;;1.57;;
58512;SDS011;44302;47.914;10.642;2022-08-14T15:03:24;2.67;;;1.50;;
58512;SDS011;44302;47.914;10.642;2022-08-14T15:05:50;1.93;;;1.70;;
58512;SDS011;44302;47.914;10.642;2022-08-14T15:08:17;1.57;;;1.40;;
58512;SDS011;44302;47.914;10.642;2022-08-14T15:10:43;4.53;;;1.53;;
58512;SDS011;44302;47.914;10.642;2022-08-14T15:13:10;1.50;;;1.40;;